createdAt,value
2019-03-25T00:00:22.148Z,415.79
2019-03-25T00:01:22.482Z,415.92
2019-03-25T00:02:22.793Z,415.81
2019-03-25T00:03:23.153Z,415.88
2019-03-25T00:04:23.445Z,416.01
2019-03-25T00:05:23.811Z,415.82
2019-03-25T00:06:24.117Z,415.75
2019-03-25T00:07:24.540Z,416.12
2019-03-25T00:08:24.795Z,415.87
2019-03-25T00:09:25.075Z,416.02
2019-03-25T00:10:25.444Z,415.99
2019-03-25T00:11:25.771Z,415.87
2019-03-25T00:12:26.101Z,415.80
2019-03-25T00:13:26.472Z,416.23
2019-03-25T00:14:26.760Z,416.10
2019-03-25T00:15:27.136Z,415.91
2019-03-25T00:16:27.424Z,416.16
2019-03-25T00:17:27.758Z,416.06
2019-03-25T00:18:28.101Z,415.92
2019-03-25T00:19:28.407Z,415.98
2019-03-25T00:20:28.755Z,415.95
2019-03-25T00:21:29.063Z,416.05
2019-03-25T00:22:29.393Z,416.15
2019-03-25T00:23:29.769Z,415.80
2019-03-25T00:24:38.246Z,415.79
2019-03-25T00:25:31.460Z,415.84
2019-03-25T00:26:30.767Z,415.93
2019-03-25T00:27:31.074Z,415.94
2019-03-25T00:28:31.452Z,415.82
2019-03-25T00:29:45.402Z,415.82
2019-03-25T00:30:32.087Z,415.90
2019-03-25T00:31:32.462Z,416.06
2019-03-25T00:32:33.051Z,416.11
2019-03-25T00:33:33.089Z,415.93
2019-03-25T00:34:33.397Z,416.03
2019-03-25T00:35:33.740Z,415.83
2019-03-25T00:36:34.066Z,415.89
2019-03-25T00:37:34.375Z,415.83
2019-03-25T00:38:34.707Z,415.60
2019-03-25T00:39:35.039Z,415.95
2019-03-25T00:40:35.440Z,416.11
2019-03-25T00:41:35.686Z,415.88
2019-03-25T00:42:35.997Z,415.97
2019-03-25T00:43:36.356Z,415.84
2019-03-25T00:44:36.687Z,415.91
2019-03-25T00:45:37.006Z,416.00
2019-03-25T00:46:37.352Z,415.82
2019-03-25T00:47:37.687Z,415.85
2019-03-25T00:48:38.036Z,415.80
2019-03-25T00:49:38.334Z,415.87
2019-03-25T00:50:38.674Z,415.86
2019-03-25T00:51:39.016Z,415.81
2019-03-25T00:52:39.346Z,415.81
2019-03-25T00:53:39.699Z,415.71
2019-03-25T00:54:49.381Z,416.20
2019-03-25T00:55:41.315Z,415.73
2019-03-25T00:56:40.734Z,416.17
2019-03-25T00:57:40.969Z,416.02
2019-03-25T00:58:41.327Z,415.97
2019-03-25T00:59:41.661Z,415.96
2019-03-25T01:00:41.956Z,416.10
2019-03-25T01:01:42.308Z,416.00
2019-03-25T01:02:42.659Z,416.06
2019-03-25T01:03:43.017Z,416.03
2019-03-25T01:04:43.336Z,415.92
2019-03-25T01:05:43.692Z,415.88
2019-03-25T01:06:43.965Z,416.00
2019-03-25T01:07:44.298Z,416.33
2019-03-25T01:08:44.650Z,415.85
2019-03-25T01:09:44.960Z,416.37
2019-03-25T01:10:45.280Z,416.08
2019-03-25T01:11:49.125Z,416.28
2019-03-25T01:12:45.924Z,415.95
2019-03-25T01:13:46.403Z,415.93
2019-03-25T01:14:46.608Z,416.01
2019-03-25T01:15:46.922Z,416.25
2019-03-25T01:16:47.255Z,415.98
2019-03-25T01:17:47.566Z,416.00
2019-03-25T01:18:47.943Z,415.73
2019-03-25T01:19:48.264Z,415.95
2019-03-25T01:20:48.578Z,416.06
2019-03-25T01:21:48.988Z,416.21
2019-03-25T01:22:49.203Z,415.82
2019-03-25T01:23:49.569Z,415.98
2019-03-25T01:25:00.821Z,415.89
2019-03-25T01:25:51.213Z,416.07
2019-03-25T01:26:50.565Z,416.27
2019-03-25T01:27:50.869Z,415.92
2019-03-25T01:28:51.213Z,416.20
2019-03-25T01:29:51.597Z,415.99
2019-03-25T01:30:51.857Z,416.03
2019-03-25T01:31:52.211Z,415.81
2019-03-25T01:32:52.516Z,416.08
2019-03-25T01:33:52.861Z,415.97
2019-03-25T01:34:53.177Z,415.81
2019-03-25T01:35:53.518Z,416.01
2019-03-25T01:36:53.860Z,416.27
2019-03-25T01:37:54.212Z,416.10
2019-03-25T01:38:54.559Z,416.06
2019-03-25T01:39:54.823Z,416.19
2019-03-25T01:40:55.160Z,415.91
2019-03-25T01:41:55.506Z,415.89
2019-03-25T01:42:55.808Z,416.12
2019-03-25T01:43:56.165Z,416.06
2019-03-25T01:44:56.495Z,416.10
2019-03-25T01:45:56.796Z,416.30
2019-03-25T01:46:57.242Z,415.93
2019-03-25T01:47:57.461Z,409.89
2019-03-25T01:48:57.816Z,409.70
2019-03-25T01:49:58.169Z,409.81
2019-03-25T01:50:58.427Z,409.86
2019-03-25T01:51:58.792Z,409.78
2019-03-25T01:52:59.106Z,409.81
2019-03-25T01:53:59.440Z,409.72
2019-03-25T01:55:00.353Z,409.62
2019-03-25T01:56:00.091Z,409.77
2019-03-25T01:57:00.455Z,409.45
2019-03-25T01:58:00.765Z,409.87
2019-03-25T01:59:01.080Z,409.63
2019-03-25T02:00:01.460Z,409.92
2019-03-25T02:01:01.755Z,409.70
2019-03-25T02:02:02.084Z,409.65
2019-03-25T02:03:02.465Z,409.60
2019-03-25T02:04:02.720Z,409.70
2019-03-25T02:05:03.091Z,409.71
2019-03-25T02:06:03.390Z,409.69
2019-03-25T02:07:03.739Z,409.75
2019-03-25T02:08:04.035Z,409.58
2019-03-25T02:09:04.375Z,409.77
2019-03-25T02:10:04.769Z,409.91
2019-03-25T02:11:05.077Z,409.68
2019-03-25T02:12:05.365Z,409.67
2019-03-25T02:13:05.679Z,409.69
2019-03-25T02:14:06.024Z,409.80
2019-03-25T02:15:06.413Z,409.65
2019-03-25T02:16:06.694Z,409.64
2019-03-25T02:17:07.042Z,409.64
2019-03-25T02:18:07.345Z,409.83
2019-03-25T02:19:07.701Z,409.77
2019-03-25T02:20:08.155Z,409.75
2019-03-25T02:21:08.355Z,409.76
2019-03-25T02:22:08.938Z,409.61
2019-03-25T02:23:09.425Z,409.55
2019-03-25T02:24:09.335Z,409.64
2019-03-25T02:25:09.683Z,409.39
2019-03-25T02:26:10.007Z,409.74
2019-03-25T02:27:10.350Z,409.47
2019-03-25T02:28:10.771Z,409.70
2019-03-25T02:29:10.969Z,409.77
2019-03-25T02:30:11.333Z,409.55
2019-03-25T02:31:11.676Z,409.68
2019-03-25T02:32:12.005Z,409.74
2019-03-25T02:33:12.335Z,409.66
2019-03-25T02:34:12.655Z,409.59
2019-03-25T02:35:12.983Z,409.59
2019-03-25T02:36:13.377Z,409.77
2019-03-25T02:37:13.644Z,409.61
2019-03-25T02:38:13.962Z,409.76
2019-03-25T02:39:14.298Z,409.59
2019-03-25T02:40:14.660Z,409.72
2019-03-25T02:41:14.938Z,409.69
2019-03-25T02:42:15.297Z,409.56
2019-03-25T02:43:15.636Z,409.44
2019-03-25T02:44:15.994Z,409.43
2019-03-25T02:45:16.285Z,409.68
2019-03-25T02:46:16.619Z,409.65
2019-03-25T02:47:16.926Z,409.48
2019-03-25T02:48:17.249Z,409.69
2019-03-25T02:49:17.602Z,409.77
2019-03-25T02:50:17.933Z,409.60
2019-03-25T02:51:18.245Z,409.73
2019-03-25T02:52:18.595Z,409.69
2019-03-25T02:53:18.973Z,409.73
2019-03-25T02:54:19.273Z,409.59
2019-03-25T02:55:19.604Z,409.39
2019-03-25T02:56:19.900Z,409.85
2019-03-25T02:57:20.224Z,409.73
2019-03-25T02:58:20.555Z,409.57
2019-03-25T02:59:20.947Z,409.63
2019-03-25T03:00:21.257Z,409.40
2019-03-25T03:01:21.685Z,409.62
2019-03-25T03:02:21.873Z,409.74
2019-03-25T03:03:22.242Z,409.50
2019-03-25T03:04:22.628Z,409.72
2019-03-25T03:05:22.935Z,409.49
2019-03-25T03:06:23.245Z,409.80
2019-03-25T03:07:23.643Z,409.80
2019-03-25T03:08:23.934Z,409.63
2019-03-25T03:09:24.344Z,409.76
2019-03-25T03:10:24.581Z,409.68
2019-03-25T03:11:24.898Z,409.85
2019-03-25T03:12:25.218Z,409.80
2019-03-25T03:13:25.564Z,409.77
2019-03-25T03:14:25.870Z,409.42
2019-03-25T03:15:26.229Z,409.71
2019-03-25T03:16:26.562Z,409.80
2019-03-25T03:17:26.910Z,409.73
2019-03-25T03:18:27.206Z,409.62
2019-03-25T03:19:27.529Z,409.85
2019-03-25T03:20:27.856Z,409.84
2019-03-25T03:21:28.204Z,409.93
2019-03-25T03:22:28.530Z,410.06
2019-03-25T03:23:28.874Z,409.91
2019-03-25T03:24:29.183Z,409.93
2019-03-25T03:25:29.588Z,409.38
2019-03-25T03:26:29.852Z,409.60
2019-03-25T03:27:30.227Z,409.84
2019-03-25T03:28:30.531Z,410.21
2019-03-25T03:29:30.841Z,409.90
2019-03-25T03:30:31.181Z,409.89
2019-03-25T03:31:31.491Z,410.13
2019-03-25T03:32:31.822Z,409.91
2019-03-25T03:33:32.208Z,409.88
2019-03-25T03:34:32.618Z,409.73
2019-03-25T03:35:32.866Z,409.97
2019-03-25T03:36:33.146Z,409.96
2019-03-25T03:37:33.481Z,409.81
2019-03-25T03:38:33.846Z,409.78
2019-03-25T03:39:34.160Z,410.06
2019-03-25T03:40:34.505Z,410.06
2019-03-25T03:41:34.829Z,409.95
2019-03-25T03:42:35.286Z,409.86
2019-03-25T03:43:35.504Z,409.74
2019-03-25T03:44:35.821Z,409.87
2019-03-25T03:45:36.166Z,409.79
2019-03-25T03:46:36.469Z,409.73
2019-03-25T03:47:36.796Z,410.12
2019-03-25T03:48:37.157Z,410.11
2019-03-25T03:49:37.474Z,409.75
2019-03-25T03:50:37.868Z,409.91
2019-03-25T03:51:38.135Z,410.16
2019-03-25T03:52:38.451Z,409.96
2019-03-25T03:53:38.798Z,410.04
2019-03-25T03:54:39.126Z,410.02
2019-03-25T03:55:39.445Z,409.94
2019-03-25T03:56:39.797Z,410.10
2019-03-25T03:57:40.105Z,409.80
2019-03-25T03:58:40.460Z,409.67
2019-03-25T03:59:40.735Z,409.97
2019-03-25T04:00:41.095Z,409.77
2019-03-25T04:01:41.834Z,409.88
2019-03-25T04:02:41.983Z,410.04
2019-03-25T04:03:42.089Z,409.69
2019-03-25T04:04:42.416Z,409.91
2019-03-25T04:05:42.747Z,409.91
2019-03-25T04:06:43.146Z,409.91
2019-03-25T04:07:43.460Z,409.89
2019-03-25T04:08:43.772Z,409.72
2019-03-25T04:09:44.079Z,410.02
2019-03-25T04:10:44.410Z,409.98
2019-03-25T04:11:44.763Z,410.12
2019-03-25T04:12:45.063Z,409.87
2019-03-25T04:13:45.414Z,410.07
2019-03-25T04:14:45.731Z,410.01
2019-03-25T04:15:46.191Z,410.05
2019-03-25T04:16:46.399Z,409.80
2019-03-25T04:17:46.707Z,409.85
2019-03-25T04:18:47.051Z,410.01
2019-03-25T04:19:47.362Z,409.75
2019-03-25T04:20:47.698Z,409.94
2019-03-25T04:21:48.035Z,410.12
2019-03-25T04:22:48.368Z,409.82
2019-03-25T04:23:48.796Z,410.17
2019-03-25T04:24:49.003Z,410.19
2019-03-25T04:25:49.338Z,409.98
2019-03-25T04:26:49.659Z,409.98
2019-03-25T04:27:50.009Z,409.98
2019-03-25T04:28:50.343Z,409.90
2019-03-25T04:29:50.653Z,409.96
2019-03-25T04:30:50.985Z,410.05
2019-03-25T04:31:51.361Z,410.02
2019-03-25T04:32:51.823Z,409.96
2019-03-25T04:33:51.981Z,410.28
2019-03-25T04:34:52.295Z,410.11
2019-03-25T04:35:52.623Z,410.09
2019-03-25T04:36:52.984Z,409.76
2019-03-25T04:37:56.177Z,409.65
2019-03-25T04:38:53.615Z,409.88
2019-03-25T04:39:54.012Z,410.01
2019-03-25T04:40:54.301Z,410.14
2019-03-25T04:41:54.648Z,410.05
2019-03-25T04:42:54.954Z,410.10
2019-03-25T04:43:55.279Z,409.88
2019-03-25T04:44:55.582Z,409.90
2019-03-25T04:45:55.935Z,410.12
2019-03-25T04:46:56.282Z,409.92
2019-03-25T04:47:56.612Z,409.99
2019-03-25T04:48:57.040Z,409.95
2019-03-25T04:49:57.247Z,409.85
2019-03-25T04:50:57.582Z,410.21
2019-03-25T04:51:57.925Z,410.01
2019-03-25T04:52:58.249Z,409.81
2019-03-25T04:53:58.589Z,410.13
2019-03-25T04:54:58.876Z,409.93
2019-03-25T04:55:59.208Z,410.12
2019-03-25T04:56:59.722Z,410.17
2019-03-25T04:57:59.898Z,410.07
2019-03-25T04:59:00.238Z,409.96
2019-03-25T05:00:00.555Z,410.02
2019-03-25T05:01:05.841Z,409.93
2019-03-25T05:02:01.225Z,410.18
2019-03-25T05:03:01.558Z,410.10
2019-03-25T05:04:01.882Z,410.17
2019-03-25T05:05:02.283Z,410.14
2019-03-25T05:06:02.482Z,410.03
2019-03-25T05:07:02.873Z,410.29
2019-03-25T05:08:03.186Z,410.29
2019-03-25T05:09:03.519Z,410.09
2019-03-25T05:10:03.832Z,410.01
2019-03-25T05:11:04.158Z,410.37
2019-03-25T05:12:04.492Z,410.19
2019-03-25T05:13:04.883Z,410.26
2019-03-25T05:14:05.129Z,410.35
2019-03-25T05:15:05.468Z,410.41
2019-03-25T05:16:05.790Z,410.28
2019-03-25T05:17:06.122Z,410.08
2019-03-25T05:18:06.440Z,410.53
2019-03-25T05:19:06.788Z,409.89
2019-03-25T05:20:07.130Z,416.56
2019-03-25T05:21:07.480Z,416.53
2019-03-25T05:22:07.943Z,416.48
2019-03-25T05:23:08.114Z,416.38
2019-03-25T05:24:08.450Z,416.24
2019-03-25T05:25:08.793Z,416.63
2019-03-25T05:26:09.109Z,416.45
2019-03-25T05:27:09.460Z,416.39
2019-03-25T05:28:09.776Z,416.51
2019-03-25T05:29:10.094Z,416.65
2019-03-25T05:30:10.523Z,416.35
2019-03-25T05:31:10.767Z,416.42
2019-03-25T05:32:11.491Z,416.34
2019-03-25T05:33:11.427Z,416.32
2019-03-25T05:34:11.738Z,416.46
2019-03-25T05:35:12.084Z,416.16
2019-03-25T05:36:12.400Z,416.32
2019-03-25T05:37:12.755Z,416.46
2019-03-25T05:38:13.173Z,416.41
2019-03-25T05:39:13.372Z,416.26
2019-03-25T05:40:13.970Z,416.17
2019-03-25T05:41:14.052Z,416.43
2019-03-25T05:42:14.393Z,416.38
2019-03-25T05:43:14.716Z,416.36
2019-03-25T05:44:15.035Z,416.23
2019-03-25T05:45:15.365Z,416.44
2019-03-25T05:46:15.747Z,416.39
2019-03-25T05:47:16.031Z,416.35
2019-03-25T05:48:16.381Z,416.49
2019-03-25T05:49:16.700Z,416.37
2019-03-25T05:50:17.035Z,416.59
2019-03-25T05:51:17.333Z,416.43
2019-03-25T05:52:17.690Z,416.56
2019-03-25T05:53:18.018Z,416.39
2019-03-25T05:54:18.396Z,416.76
2019-03-25T05:55:18.705Z,416.63
2019-03-25T05:56:18.984Z,416.44
2019-03-25T05:57:19.334Z,416.28
2019-03-25T05:58:19.708Z,416.39
2019-03-25T05:59:19.993Z,416.38
2019-03-25T06:00:20.339Z,416.51
2019-03-25T06:01:20.651Z,416.29
2019-03-25T06:02:21.022Z,416.14
2019-03-25T06:03:21.443Z,416.25
2019-03-25T06:04:21.641Z,415.95
2019-03-25T06:05:21.988Z,415.79
2019-03-25T06:06:22.301Z,415.88
2019-03-25T06:07:22.648Z,415.94
2019-03-25T06:08:22.972Z,415.61
2019-03-25T06:09:23.292Z,416.02
2019-03-25T06:10:23.633Z,415.63
2019-03-25T06:11:24.035Z,415.88
2019-03-25T06:12:24.273Z,416.00
2019-03-25T06:13:24.626Z,415.91
2019-03-25T06:14:24.959Z,415.66
2019-03-25T06:15:25.301Z,415.84
2019-03-25T06:16:25.614Z,415.72
2019-03-25T06:17:25.957Z,415.82
2019-03-25T06:18:26.276Z,415.81
2019-03-25T06:19:26.669Z,415.85
2019-03-25T06:20:26.933Z,415.94
2019-03-25T06:21:27.255Z,415.84
2019-03-25T06:22:27.586Z,415.96
2019-03-25T06:23:27.938Z,415.87
2019-03-25T06:24:28.253Z,415.86
2019-03-25T06:25:28.612Z,415.91
2019-03-25T06:26:28.935Z,416.10
2019-03-25T06:27:29.315Z,416.32
2019-03-25T06:28:29.610Z,416.08
2019-03-25T06:29:31.944Z,416.35
2019-03-25T06:30:30.251Z,416.19
2019-03-25T06:31:30.595Z,416.30
2019-03-25T06:32:30.944Z,416.16
2019-03-25T06:33:31.290Z,416.50
2019-03-25T06:34:31.623Z,416.30
2019-03-25T06:35:31.962Z,416.37
2019-03-25T06:36:32.333Z,416.27
2019-03-25T06:37:32.592Z,416.07
2019-03-25T06:38:32.941Z,416.27
2019-03-25T06:39:33.264Z,416.45
2019-03-25T06:40:33.595Z,416.07
2019-03-25T06:41:33.895Z,416.22
2019-03-25T06:42:34.242Z,416.11
2019-03-25T06:43:34.611Z,416.61
2019-03-25T06:44:35.037Z,416.08
2019-03-25T06:45:35.256Z,415.99
2019-03-25T06:46:35.560Z,416.47
2019-03-25T06:47:35.913Z,416.33
2019-03-25T06:48:36.246Z,416.32
2019-03-25T06:49:36.575Z,416.10
2019-03-25T06:50:36.919Z,416.21
2019-03-25T06:51:37.232Z,416.17
2019-03-25T06:52:37.630Z,416.00
2019-03-25T06:53:37.893Z,416.26
2019-03-25T06:54:38.220Z,416.23
2019-03-25T06:55:38.556Z,416.26
2019-03-25T06:56:38.868Z,416.14
2019-03-25T06:57:39.182Z,416.03
2019-03-25T06:58:39.545Z,416.05
2019-03-25T06:59:39.885Z,416.15
2019-03-25T07:00:40.299Z,416.37
2019-03-25T07:01:40.517Z,416.31
2019-03-25T07:02:40.858Z,416.25
2019-03-25T07:03:41.185Z,416.50
2019-03-25T07:04:41.515Z,416.52
2019-03-25T07:05:41.857Z,416.64
2019-03-25T07:06:42.171Z,416.36
2019-03-25T07:07:42.500Z,416.65
2019-03-25T07:08:42.926Z,416.41
2019-03-25T07:09:43.158Z,416.38
2019-03-25T07:10:43.515Z,416.47
2019-03-25T07:11:43.823Z,416.51
2019-03-25T07:12:44.154Z,416.37
2019-03-25T07:13:44.514Z,416.37
2019-03-25T07:14:44.823Z,416.45
2019-03-25T07:15:45.150Z,416.60
2019-03-25T07:16:45.490Z,416.46
2019-03-25T07:17:45.956Z,416.74
2019-03-25T07:18:46.407Z,416.60
2019-03-25T07:19:46.492Z,416.70
2019-03-25T07:20:46.795Z,416.68
2019-03-25T07:21:47.142Z,416.78
2019-03-25T07:22:47.489Z,416.70
2019-03-25T07:23:47.831Z,416.70
2019-03-25T07:24:48.150Z,416.85
2019-03-25T07:25:48.604Z,416.68
2019-03-25T07:26:48.837Z,416.94
2019-03-25T07:27:49.167Z,416.85
2019-03-25T07:28:49.510Z,416.77
2019-03-25T07:29:49.833Z,416.77
2019-03-25T07:30:50.157Z,416.87
2019-03-25T07:31:50.477Z,416.85
2019-03-25T07:32:50.834Z,417.15
2019-03-25T07:33:51.261Z,416.82
2019-03-25T07:34:51.483Z,417.10
2019-03-25T07:35:51.812Z,417.05
2019-03-25T07:36:52.170Z,417.13
2019-03-25T07:37:52.456Z,417.06
2019-03-25T07:38:52.822Z,417.02
2019-03-25T07:39:53.141Z,416.98
2019-03-25T07:40:53.466Z,417.02
2019-03-25T07:41:53.873Z,416.95
2019-03-25T07:42:54.074Z,416.97
2019-03-25T07:43:54.454Z,417.12
2019-03-25T07:44:54.829Z,417.11
2019-03-25T07:45:55.123Z,417.12
2019-03-25T07:46:55.473Z,411.00
2019-03-25T07:47:55.784Z,410.79
2019-03-25T07:48:56.134Z,410.86
2019-03-25T07:49:56.474Z,410.84
2019-03-25T07:50:56.861Z,410.93
2019-03-25T07:51:57.125Z,410.98
2019-03-25T07:52:57.438Z,411.02
2019-03-25T07:53:57.794Z,411.14
2019-03-25T07:54:58.119Z,411.07
2019-03-25T07:55:58.434Z,410.91
2019-03-25T07:56:58.787Z,411.05
2019-03-25T07:57:59.098Z,411.01
2019-03-25T07:58:59.546Z,411.10
2019-03-25T07:59:59.782Z,411.04
2019-03-25T08:01:00.075Z,411.36
2019-03-25T08:02:00.423Z,411.05
2019-03-25T08:03:00.735Z,410.88
2019-03-25T08:04:01.092Z,411.03
2019-03-25T08:05:01.431Z,411.00
2019-03-25T08:06:01.730Z,410.94
2019-03-25T08:07:02.182Z,411.29
2019-03-25T08:08:02.392Z,411.29
2019-03-25T08:09:03.919Z,411.10
2019-03-25T08:10:03.126Z,411.49
2019-03-25T08:11:03.373Z,411.04
2019-03-25T08:12:03.772Z,411.10
2019-03-25T08:13:04.093Z,411.40
2019-03-25T08:14:04.430Z,411.14
2019-03-25T08:15:04.854Z,410.93
2019-03-25T08:16:05.022Z,411.21
2019-03-25T08:17:05.359Z,411.06
2019-03-25T08:18:05.690Z,411.13
2019-03-25T08:19:06.030Z,411.18
2019-03-25T08:20:06.376Z,411.17
2019-03-25T08:21:06.674Z,410.77
2019-03-25T08:22:07.027Z,410.85
2019-03-25T08:23:07.361Z,411.15
2019-03-25T08:24:07.712Z,411.05
2019-03-25T08:25:08.020Z,411.07
2019-03-25T08:26:08.335Z,410.81
2019-03-25T08:27:08.673Z,411.11
2019-03-25T08:28:08.977Z,410.84
2019-03-25T08:29:09.326Z,411.05
2019-03-25T08:30:09.681Z,411.10
2019-03-25T08:31:10.059Z,411.05
2019-03-25T08:32:10.466Z,411.32
2019-03-25T08:33:10.647Z,411.12
2019-03-25T08:34:10.991Z,411.01
2019-03-25T08:35:11.345Z,411.23
2019-03-25T08:36:11.687Z,411.18
2019-03-25T08:37:12.021Z,411.30
2019-03-25T08:38:12.325Z,411.34
2019-03-25T08:39:12.645Z,411.60
2019-03-25T08:40:13.189Z,411.58
2019-03-25T08:41:13.399Z,411.19
2019-03-25T08:42:13.737Z,411.25
2019-03-25T08:43:14.049Z,411.37
2019-03-25T08:44:14.369Z,411.40
2019-03-25T08:45:14.725Z,411.48
2019-03-25T08:46:15.049Z,411.31
2019-03-25T08:47:15.388Z,411.09
2019-03-25T08:48:15.786Z,411.12
2019-03-25T08:49:16.014Z,411.45
2019-03-25T08:50:16.353Z,411.13
2019-03-25T08:51:16.690Z,411.09
2019-03-25T08:52:17.026Z,411.10
2019-03-25T08:53:17.340Z,411.06
2019-03-25T08:54:17.673Z,411.06
2019-03-25T08:55:18.261Z,410.98
2019-03-25T08:56:18.348Z,411.16
2019-03-25T08:57:18.661Z,410.72
2019-03-25T08:58:18.985Z,410.65
2019-03-25T08:59:19.310Z,410.99
2019-03-25T09:00:19.669Z,410.83
2019-03-25T09:01:19.986Z,410.85
2019-03-25T09:02:20.314Z,411.12
2019-03-25T09:03:20.649Z,410.83
2019-03-25T09:04:21.240Z,411.22
2019-03-25T09:05:21.414Z,411.10
2019-03-25T09:06:21.643Z,411.13
2019-03-25T09:07:21.965Z,411.27
2019-03-25T09:08:22.294Z,411.25
2019-03-25T09:09:22.640Z,411.22
2019-03-25T09:10:22.986Z,411.29
2019-03-25T09:11:23.309Z,411.17
2019-03-25T09:12:23.650Z,411.00
2019-03-25T09:13:24.045Z,411.23
2019-03-25T09:14:24.283Z,411.30
2019-03-25T09:15:24.626Z,411.15
2019-03-25T09:16:24.946Z,411.05
2019-03-25T09:17:25.295Z,411.03
2019-03-25T09:18:25.595Z,410.81
2019-03-25T09:19:25.949Z,410.95
2019-03-25T09:20:26.309Z,410.95
2019-03-25T09:21:26.727Z,410.73
2019-03-25T09:22:26.955Z,410.85
2019-03-25T09:23:27.267Z,411.11
2019-03-25T09:24:27.585Z,417.22
2019-03-25T09:25:27.954Z,417.24
2019-03-25T09:26:28.268Z,417.30
2019-03-25T09:27:28.597Z,417.17
2019-03-25T09:28:28.917Z,417.14
2019-03-25T09:29:29.268Z,417.07
2019-03-25T09:30:29.573Z,417.10
2019-03-25T09:31:36.838Z,417.09
2019-03-25T09:32:31.259Z,417.13
2019-03-25T09:33:30.581Z,417.09
2019-03-25T09:34:30.897Z,417.11
2019-03-25T09:35:31.251Z,417.06
2019-03-25T09:36:31.570Z,417.28
2019-03-25T09:37:31.949Z,417.04
2019-03-25T09:38:32.266Z,417.25
2019-03-25T09:39:32.566Z,417.15
2019-03-25T09:40:32.903Z,417.02
2019-03-25T09:41:33.229Z,417.34
2019-03-25T09:42:33.549Z,417.24
2019-03-25T09:43:33.872Z,417.08
2019-03-25T09:44:34.202Z,417.12
2019-03-25T09:45:34.577Z,417.20
2019-03-25T09:46:34.979Z,417.07
2019-03-25T09:47:37.642Z,416.93
2019-03-25T09:48:35.530Z,416.96
2019-03-25T09:49:35.865Z,416.97
2019-03-25T09:50:36.210Z,417.23
2019-03-25T09:51:36.532Z,417.16
2019-03-25T09:52:38.665Z,417.09
2019-03-25T09:53:37.189Z,417.17
2019-03-25T09:54:37.660Z,417.00
2019-03-25T09:55:37.885Z,417.29
2019-03-25T09:56:38.214Z,417.07
2019-03-25T09:57:38.510Z,417.25
2019-03-25T09:58:38.876Z,417.20
2019-03-25T09:59:39.183Z,417.30
2019-03-25T10:00:39.534Z,417.19
2019-03-25T10:01:39.848Z,417.37
2019-03-25T10:02:40.208Z,416.86
2019-03-25T10:03:40.499Z,416.88
2019-03-25T10:04:40.835Z,417.13
2019-03-25T10:05:41.179Z,417.27
2019-03-25T10:06:41.502Z,417.07
2019-03-25T10:07:41.843Z,416.97
2019-03-25T10:08:42.170Z,417.07
2019-03-25T10:09:42.469Z,417.02
2019-03-25T10:10:42.886Z,417.05
2019-03-25T10:11:43.117Z,416.87
2019-03-25T10:12:43.479Z,416.86
2019-03-25T10:13:43.797Z,416.96
2019-03-25T10:14:44.102Z,416.76
2019-03-25T10:15:44.466Z,416.91
2019-03-25T10:16:44.803Z,417.14
2019-03-25T10:17:45.132Z,416.81
2019-03-25T10:18:45.492Z,417.16
2019-03-25T10:19:45.858Z,417.26
2019-03-25T10:20:46.131Z,416.96
2019-03-25T10:21:46.457Z,416.82
2019-03-25T10:22:46.795Z,417.03
2019-03-25T10:23:47.147Z,417.15
2019-03-25T10:24:47.446Z,417.08
2019-03-25T10:25:47.796Z,417.18
2019-03-25T10:26:48.095Z,417.00
2019-03-25T10:27:48.575Z,417.22
2019-03-25T10:28:49.315Z,417.18
2019-03-25T10:29:49.094Z,416.85
2019-03-25T10:30:49.428Z,416.98
2019-03-25T10:31:49.749Z,417.07
2019-03-25T10:32:50.095Z,417.13
2019-03-25T10:33:50.431Z,416.92
2019-03-25T10:34:50.979Z,417.16
2019-03-25T10:35:51.181Z,417.12
2019-03-25T10:36:51.387Z,417.10
2019-03-25T10:37:51.816Z,416.90
2019-03-25T10:38:52.076Z,416.67
2019-03-25T10:39:52.388Z,416.99
2019-03-25T10:40:52.728Z,416.59
2019-03-25T10:41:53.049Z,416.73
2019-03-25T10:42:53.371Z,416.85
2019-03-25T10:43:53.760Z,416.86
2019-03-25T10:44:54.036Z,416.69
2019-03-25T10:45:54.388Z,416.49
2019-03-25T10:46:54.698Z,416.42
2019-03-25T10:47:55.055Z,416.32
2019-03-25T10:48:55.407Z,416.64
2019-03-25T10:49:55.683Z,416.77
2019-03-25T10:50:56.032Z,416.64
2019-03-25T10:51:56.385Z,416.43
2019-03-25T10:52:56.754Z,416.70
2019-03-25T10:53:57.026Z,416.64
2019-03-25T10:55:57.701Z,416.61
2019-03-25T10:56:58.051Z,416.68
2019-03-25T10:57:58.386Z,416.79
2019-03-25T10:58:58.728Z,417.08
2019-03-25T10:59:59.049Z,416.79
2019-03-25T11:00:59.487Z,416.96
2019-03-25T11:01:59.709Z,416.90
2019-03-25T11:03:00.038Z,416.86
2019-03-25T11:04:00.377Z,416.62
2019-03-25T11:05:00.676Z,417.11
2019-03-25T11:06:01.017Z,416.91
2019-03-25T11:07:01.374Z,416.82
2019-03-25T11:08:01.681Z,416.91
2019-03-25T11:09:02.117Z,416.90
2019-03-25T11:10:02.320Z,416.56
2019-03-25T11:11:03.522Z,416.88
2019-03-25T11:12:03.046Z,416.91
2019-03-25T11:13:03.337Z,416.87
2019-03-25T11:14:03.671Z,416.54
2019-03-25T11:15:03.984Z,416.73
2019-03-25T11:16:04.300Z,417.07
2019-03-25T11:17:04.701Z,416.83
2019-03-25T11:18:05.802Z,416.42
2019-03-25T11:19:05.312Z,416.87
2019-03-25T11:20:05.623Z,416.64
2019-03-25T11:21:05.953Z,416.49
2019-03-25T11:22:06.285Z,416.65
2019-03-25T11:23:06.625Z,416.48
2019-03-25T11:24:06.959Z,416.69
2019-03-25T11:25:07.338Z,416.75
2019-03-25T11:26:07.577Z,416.66
2019-03-25T11:27:07.932Z,416.44
2019-03-25T11:28:08.241Z,416.81
2019-03-25T11:29:08.956Z,416.61
2019-03-25T11:30:08.909Z,416.76
2019-03-25T11:31:09.370Z,416.62
2019-03-25T11:32:09.590Z,416.52
2019-03-25T11:33:09.941Z,416.31
2019-03-25T11:34:10.292Z,416.66
2019-03-25T11:35:10.558Z,416.52
2019-03-25T11:36:10.879Z,416.31
2019-03-25T11:37:11.283Z,416.64
2019-03-25T11:38:11.555Z,416.56
2019-03-25T11:39:11.879Z,415.98
2019-03-25T11:40:12.213Z,416.11
2019-03-25T11:41:12.542Z,416.00
2019-03-25T11:42:12.985Z,416.01
2019-03-25T11:43:13.191Z,415.73
2019-03-25T11:44:13.536Z,415.83
2019-03-25T11:45:13.864Z,415.95
2019-03-25T11:46:14.193Z,415.53
2019-03-25T11:47:14.540Z,415.37
2019-03-25T11:48:14.865Z,415.42
2019-03-25T11:49:15.197Z,415.34
2019-03-25T11:50:15.611Z,414.95
2019-03-25T11:51:15.837Z,415.08
2019-03-25T11:52:16.178Z,415.12
2019-03-25T11:53:16.510Z,415.18
2019-03-25T11:54:16.816Z,415.13
2019-03-25T11:55:17.827Z,415.24
2019-03-25T11:56:17.490Z,415.30
2019-03-25T11:57:17.874Z,415.15
2019-03-25T11:58:18.203Z,415.43
2019-03-25T11:59:18.998Z,415.28
2019-03-25T12:00:18.796Z,415.77
2019-03-25T12:01:19.148Z,415.41
2019-03-25T12:02:19.500Z,415.60
2019-03-25T12:03:19.826Z,415.83
2019-03-25T12:04:20.145Z,415.67
2019-03-25T12:05:20.494Z,415.78
2019-03-25T12:06:20.865Z,415.56
2019-03-25T12:07:21.195Z,415.42
2019-03-25T12:08:21.505Z,415.85
2019-03-25T12:09:21.816Z,415.66
2019-03-25T12:10:22.162Z,415.99
2019-03-25T12:11:23.663Z,416.24
2019-03-25T12:12:22.809Z,416.12
2019-03-25T12:13:23.165Z,416.02
2019-03-25T12:14:23.495Z,416.29
2019-03-25T12:15:24.163Z,416.39
2019-03-25T12:16:24.108Z,416.49
2019-03-25T12:17:24.469Z,416.55
2019-03-25T12:18:24.821Z,416.36
2019-03-25T12:19:25.128Z,416.54
2019-03-25T12:20:25.476Z,416.50
2019-03-25T12:21:25.783Z,416.68
2019-03-25T12:22:26.136Z,416.79
2019-03-25T12:23:26.758Z,416.64
2019-03-25T12:24:26.783Z,417.04
2019-03-25T12:25:27.143Z,417.06
2019-03-25T12:26:27.444Z,416.86
2019-03-25T12:27:27.855Z,417.08
2019-03-25T12:28:28.121Z,416.77
2019-03-25T12:29:30.330Z,417.08
2019-03-25T12:30:28.787Z,416.98
2019-03-25T12:31:29.144Z,417.10
2019-03-25T12:32:29.425Z,417.20
2019-03-25T12:33:29.804Z,417.07